sensor_id;sensor_type;location;lat;lon;timestamp;temperature;humidity
11142;DHT22;5625;50.122;19.864;2023-07-13T00:01:00;22.60;1.00
11142;DHT22;5625;50.122;19.864;2023-07-13T00:03:28;22.60;1.00
11142;DHT22;5625;50.122;19.864;2023-07-13T00:06:03;22.60;1.00
11142;DHT22;5625;50.122;19.864;2023-07-13T00:08:31;22.60;1.00
11142;DHT22;5625;50.122;19.864;2023-07-13T00:11:00;22.50;1.00
11142;DHT22;5625;50.122;19.864;2023-07-13T00:13:29;22.50;1.00
11142;DHT22;5625;50.122;19.864;2023-07-13T00:15:58;22.50;1.00
11142;DHT22;5625;50.122;19.864;2023-07-13T00:18:27;22.50;7.00
11142;DHT22;5625;50.122;19.864;2023-07-13T00:20:57;22.50;20.20
11142;DHT22;5625;50.122;19.864;2023-07-13T00:23:33;22.50;27.90
11142;DHT22;5625;50.122;19.864;2023-07-13T00:26:01;22.40;39.50
11142;DHT22;5625;50.122;19.864;2023-07-13T00:28:29;22.40;52.70
11142;DHT22;5625;50.122;19.864;2023-07-13T00:30:57;22.40;64.80
11142;DHT22;5625;50.122;19.864;2023-07-13T00:33:27;22.30;77.30
11142;DHT22;5625;50.122;19.864;2023-07-13T00:35:55;22.30;76.60
11142;DHT22;5625;50.122;19.864;2023-07-13T00:38:24;22.30;91.00
11142;DHT22;5625;50.122;19.864;2023-07-13T00:40:53;22.20;85.50
11142;DHT22;5625;50.122;19.864;2023-07-13T00:43:23;22.30;92.00
11142;DHT22;5625;50.122;19.864;2023-07-13T00:48:58;22.10;99.90
11142;DHT22;5625;50.122;19.864;2023-07-13T00:51:32;22.10;99.90
11142;DHT22;5625;50.122;19.864;2023-07-13T00:54:05;22.00;99.90
11142;DHT22;5625;50.122;19.864;2023-07-13T00:56:36;22.00;99.90
11142;DHT22;5625;50.122;19.864;2023-07-13T00:59:06;22.00;99.90
11142;DHT22;5625;50.122;19.864;2023-07-13T01:01:35;22.00;99.90
11142;DHT22;5625;50.122;19.864;2023-07-13T01:04:04;22.00;99.90
11142;DHT22;5625;50.122;19.864;2023-07-13T01:06:35;21.90;99.90
11142;DHT22;5625;50.122;19.864;2023-07-13T01:09:04;21.90;99.90
11142;DHT22;5625;50.122;19.864;2023-07-13T01:11:32;21.90;99.90
11142;DHT22;5625;50.122;19.864;2023-07-13T01:14:03;21.90;99.90
11142;DHT22;5625;50.122;19.864;2023-07-13T01:16:34;21.90;99.90
11142;DHT22;5625;50.122;19.864;2023-07-13T01:19:15;21.80;99.90
11142;DHT22;5625;50.122;19.864;2023-07-13T01:21:52;21.80;99.90
11142;DHT22;5625;50.122;19.864;2023-07-13T01:24:20;21.80;99.90
11142;DHT22;5625;50.122;19.864;2023-07-13T01:26:48;21.80;99.90
11142;DHT22;5625;50.122;19.864;2023-07-13T01:29:16;21.80;99.90
11142;DHT22;5625;50.122;19.864;2023-07-13T01:31:44;21.70;99.90
11142;DHT22;5625;50.122;19.864;2023-07-13T01:34:13;21.70;99.90
11142;DHT22;5625;50.122;19.864;2023-07-13T01:36:41;21.70;99.90
11142;DHT22;5625;50.122;19.864;2023-07-13T01:39:11;21.70;99.90
11142;DHT22;5625;50.122;19.864;2023-07-13T01:41:39;21.60;99.90
11142;DHT22;5625;50.122;19.864;2023-07-13T01:44:07;21.60;99.90
11142;DHT22;5625;50.122;19.864;2023-07-13T01:46:35;21.60;99.90
11142;DHT22;5625;50.122;19.864;2023-07-13T01:49:03;21.50;99.90
11142;DHT22;5625;50.122;19.864;2023-07-13T01:51:31;21.50;99.90
11142;DHT22;5625;50.122;19.864;2023-07-13T01:53:59;21.40;99.90
11142;DHT22;5625;50.122;19.864;2023-07-13T01:56:29;21.50;99.90
11142;DHT22;5625;50.122;19.864;2023-07-13T01:58:57;21.50;99.90
11142;DHT22;5625;50.122;19.864;2023-07-13T02:01:25;21.50;99.90
11142;DHT22;5625;50.122;19.864;2023-07-13T02:03:53;21.50;99.90
11142;DHT22;5625;50.122;19.864;2023-07-13T02:06:21;21.50;99.90
11142;DHT22;5625;50.122;19.864;2023-07-13T02:08:49;21.50;99.90
11142;DHT22;5625;50.122;19.864;2023-07-13T02:11:17;21.50;99.90
11142;DHT22;5625;50.122;19.864;2023-07-13T02:13:47;21.50;99.90
11142;DHT22;5625;50.122;19.864;2023-07-13T02:16:15;21.50;99.90
11142;DHT22;5625;50.122;19.864;2023-07-13T02:18:43;21.50;99.90
11142;DHT22;5625;50.122;19.864;2023-07-13T02:21:11;21.40;99.90
11142;DHT22;5625;50.122;19.864;2023-07-13T02:23:39;21.40;99.90
11142;DHT22;5625;50.122;19.864;2023-07-13T02:26:07;21.40;99.90
11142;DHT22;5625;50.122;19.864;2023-07-13T02:28:36;21.40;99.90
11142;DHT22;5625;50.122;19.864;2023-07-13T02:31:07;21.40;99.90
11142;DHT22;5625;50.122;19.864;2023-07-13T02:33:36;21.40;99.90
11142;DHT22;5625;50.122;19.864;2023-07-13T02:36:04;21.40;99.90
11142;DHT22;5625;50.122;19.864;2023-07-13T02:38:34;21.30;99.90
11142;DHT22;5625;50.122;19.864;2023-07-13T02:41:02;21.30;99.90
11142;DHT22;5625;50.122;19.864;2023-07-13T02:43:30;21.30;99.90
11142;DHT22;5625;50.122;19.864;2023-07-13T02:45:59;21.30;99.90
11142;DHT22;5625;50.122;19.864;2023-07-13T02:48:32;21.30;99.90
11142;DHT22;5625;50.122;19.864;2023-07-13T02:51:00;21.30;99.90
11142;DHT22;5625;50.122;19.864;2023-07-13T02:53:28;21.20;99.90
11142;DHT22;5625;50.122;19.864;2023-07-13T02:55:57;21.20;99.90
11142;DHT22;5625;50.122;19.864;2023-07-13T02:58:25;21.20;99.90
11142;DHT22;5625;50.122;19.864;2023-07-13T03:00:53;21.20;99.90
11142;DHT22;5625;50.122;19.864;2023-07-13T03:03:21;21.20;99.90
11142;DHT22;5625;50.122;19.864;2023-07-13T03:05:58;21.20;99.90
11142;DHT22;5625;50.122;19.864;2023-07-13T03:08:26;21.10;99.90
11142;DHT22;5625;50.122;19.864;2023-07-13T03:10:59;21.10;99.90
11142;DHT22;5625;50.122;19.864;2023-07-13T03:13:28;21.10;99.90
11142;DHT22;5625;50.122;19.864;2023-07-13T03:15:56;21.10;99.90
11142;DHT22;5625;50.122;19.864;2023-07-13T03:18:26;21.10;99.90
11142;DHT22;5625;50.122;19.864;2023-07-13T03:20:57;21.10;99.90
11142;DHT22;5625;50.122;19.864;2023-07-13T03:23:25;21.10;99.90
11142;DHT22;5625;50.122;19.864;2023-07-13T03:26:01;21.20;99.90
11142;DHT22;5625;50.122;19.864;2023-07-13T03:28:30;21.10;99.90
11142;DHT22;5625;50.122;19.864;2023-07-13T03:31:02;21.10;99.90
11142;DHT22;5625;50.122;19.864;2023-07-13T03:33:30;21.10;99.90
11142;DHT22;5625;50.122;19.864;2023-07-13T03:36:00;21.10;99.90
11142;DHT22;5625;50.122;19.864;2023-07-13T03:38:28;21.10;99.90
11142;DHT22;5625;50.122;19.864;2023-07-13T03:40:56;21.10;99.90
11142;DHT22;5625;50.122;19.864;2023-07-13T03:43:24;21.20;99.90
11142;DHT22;5625;50.122;19.864;2023-07-13T03:45:52;21.20;99.90
11142;DHT22;5625;50.122;19.864;2023-07-13T03:48:21;21.20;99.90
11142;DHT22;5625;50.122;19.864;2023-07-13T03:50:49;21.20;99.90
11142;DHT22;5625;50.122;19.864;2023-07-13T03:53:18;21.20;99.90
11142;DHT22;5625;50.122;19.864;2023-07-13T03:55:46;21.20;99.90
11142;DHT22;5625;50.122;19.864;2023-07-13T03:58:28;21.30;99.90
11142;DHT22;5625;50.122;19.864;2023-07-13T04:00:56;21.30;99.90
11142;DHT22;5625;50.122;19.864;2023-07-13T04:03:25;21.30;99.90
11142;DHT22;5625;50.122;19.864;2023-07-13T04:05:55;21.30;99.90
11142;DHT22;5625;50.122;19.864;2023-07-13T04:08:29;21.30;99.90
11142;DHT22;5625;50.122;19.864;2023-07-13T04:10:58;21.30;99.90
11142;DHT22;5625;50.122;19.864;2023-07-13T04:13:27;21.30;99.90
11142;DHT22;5625;50.122;19.864;2023-07-13T04:15:55;21.40;99.90
11142;DHT22;5625;50.122;19.864;2023-07-13T04:18:23;21.40;99.90
11142;DHT22;5625;50.122;19.864;2023-07-13T04:20:52;21.40;99.90
11142;DHT22;5625;50.122;19.864;2023-07-13T04:23:20;21.50;99.90
11142;DHT22;5625;50.122;19.864;2023-07-13T04:25:52;21.60;99.90
11142;DHT22;5625;50.122;19.864;2023-07-13T04:28:21;21.70;99.90
11142;DHT22;5625;50.122;19.864;2023-07-13T04:30:49;21.80;99.90
11142;DHT22;5625;50.122;19.864;2023-07-13T04:33:17;21.90;99.90
11142;DHT22;5625;50.122;19.864;2023-07-13T04:35:49;21.90;99.90
11142;DHT22;5625;50.122;19.864;2023-07-13T04:38:21;22.00;99.90
11142;DHT22;5625;50.122;19.864;2023-07-13T04:40:51;22.00;99.90
11142;DHT22;5625;50.122;19.864;2023-07-13T04:43:19;22.10;99.90
11142;DHT22;5625;50.122;19.864;2023-07-13T04:45:47;22.10;99.90
11142;DHT22;5625;50.122;19.864;2023-07-13T04:48:15;22.20;99.90
11142;DHT22;5625;50.122;19.864;2023-07-13T04:50:43;22.20;99.90
11142;DHT22;5625;50.122;19.864;2023-07-13T04:53:11;22.20;99.90
11142;DHT22;5625;50.122;19.864;2023-07-13T04:55:40;22.30;99.90
11142;DHT22;5625;50.122;19.864;2023-07-13T04:58:09;22.30;99.90
11142;DHT22;5625;50.122;19.864;2023-07-13T05:00:37;22.40;99.90
11142;DHT22;5625;50.122;19.864;2023-07-13T05:03:05;22.40;99.90
11142;DHT22;5625;50.122;19.864;2023-07-13T05:05:34;22.50;99.90
11142;DHT22;5625;50.122;19.864;2023-07-13T05:08:03;22.60;99.90
11142;DHT22;5625;50.122;19.864;2023-07-13T05:10:31;22.70;99.90
11142;DHT22;5625;50.122;19.864;2023-07-13T05:12:59;23.00;99.90
11142;DHT22;5625;50.122;19.864;2023-07-13T05:15:29;23.10;99.90
11142;DHT22;5625;50.122;19.864;2023-07-13T05:17:57;23.30;99.90
11142;DHT22;5625;50.122;19.864;2023-07-13T05:20:25;23.50;95.50
11142;DHT22;5625;50.122;19.864;2023-07-13T05:22:53;23.60;79.50
11142;DHT22;5625;50.122;19.864;2023-07-13T05:25:21;23.70;66.60
11142;DHT22;5625;50.122;19.864;2023-07-13T05:27:50;23.80;49.40
11142;DHT22;5625;50.122;19.864;2023-07-13T05:30:18;23.90;27.60
11142;DHT22;5625;50.122;19.864;2023-07-13T05:32:47;24.10;13.60
11142;DHT22;5625;50.122;19.864;2023-07-13T05:35:15;24.20;1.00
11142;DHT22;5625;50.122;19.864;2023-07-13T05:37:44;24.30;1.00
11142;DHT22;5625;50.122;19.864;2023-07-13T05:40:12;24.50;1.00
11142;DHT22;5625;50.122;19.864;2023-07-13T05:42:40;24.50;1.00
11142;DHT22;5625;50.122;19.864;2023-07-13T05:45:08;24.40;1.00
11142;DHT22;5625;50.122;19.864;2023-07-13T05:47:36;24.40;1.00
11142;DHT22;5625;50.122;19.864;2023-07-13T05:50:07;24.50;1.00
11142;DHT22;5625;50.122;19.864;2023-07-13T05:52:35;24.70;1.00
11142;DHT22;5625;50.122;19.864;2023-07-13T05:55:04;24.90;1.00
11142;DHT22;5625;50.122;19.864;2023-07-13T05:57:32;25.00;1.00
11142;DHT22;5625;50.122;19.864;2023-07-13T06:00:00;25.10;1.00
11142;DHT22;5625;50.122;19.864;2023-07-13T06:02:29;25.30;1.00
11142;DHT22;5625;50.122;19.864;2023-07-13T06:04:57;25.30;1.00
11142;DHT22;5625;50.122;19.864;2023-07-13T06:07:27;25.40;1.00
11142;DHT22;5625;50.122;19.864;2023-07-13T06:09:56;25.50;1.00
11142;DHT22;5625;50.122;19.864;2023-07-13T06:12:26;25.60;1.00
11142;DHT22;5625;50.122;19.864;2023-07-13T06:14:54;25.60;1.00
11142;DHT22;5625;50.122;19.864;2023-07-13T06:17:25;25.80;1.00
11142;DHT22;5625;50.122;19.864;2023-07-13T06:19:53;25.90;1.00
11142;DHT22;5625;50.122;19.864;2023-07-13T06:22:21;26.00;99.90
11142;DHT22;5625;50.122;19.864;2023-07-13T06:24:51;26.20;99.90
11142;DHT22;5625;50.122;19.864;2023-07-13T06:27:19;26.40;99.90
11142;DHT22;5625;50.122;19.864;2023-07-13T06:29:47;26.50;99.90
11142;DHT22;5625;50.122;19.864;2023-07-13T06:32:18;26.60;99.90
11142;DHT22;5625;50.122;19.864;2023-07-13T06:34:46;26.70;99.90
11142;DHT22;5625;50.122;19.864;2023-07-13T06:37:14;26.80;99.90
11142;DHT22;5625;50.122;19.864;2023-07-13T06:39:52;26.80;99.90
11142;DHT22;5625;50.122;19.864;2023-07-13T06:42:20;27.00;99.90
11142;DHT22;5625;50.122;19.864;2023-07-13T06:44:48;27.10;1.00
11142;DHT22;5625;50.122;19.864;2023-07-13T06:47:16;27.10;1.00
11142;DHT22;5625;50.122;19.864;2023-07-13T06:49:44;27.20;7.30
11142;DHT22;5625;50.122;19.864;2023-07-13T06:52:12;27.20;13.70
11142;DHT22;5625;50.122;19.864;2023-07-13T06:54:40;27.40;81.70
11142;DHT22;5625;50.122;19.864;2023-07-13T06:57:10;27.40;99.90
11142;DHT22;5625;50.122;19.864;2023-07-13T06:59:41;27.40;99.90
11142;DHT22;5625;50.122;19.864;2023-07-13T07:02:10;27.50;1.00
11142;DHT22;5625;50.122;19.864;2023-07-13T07:04:38;27.50;1.00
11142;DHT22;5625;50.122;19.864;2023-07-13T07:07:06;27.60;99.90
11142;DHT22;5625;50.122;19.864;2023-07-13T07:09:34;27.70;99.90
11142;DHT22;5625;50.122;19.864;2023-07-13T07:12:03;27.80;99.90
11142;DHT22;5625;50.122;19.864;2023-07-13T07:14:32;27.90;80.50
11142;DHT22;5625;50.122;19.864;2023-07-13T07:17:03;27.90;1.00
11142;DHT22;5625;50.122;19.864;2023-07-13T07:19:32;27.90;99.90
11142;DHT22;5625;50.122;19.864;2023-07-13T07:22:03;28.00;99.90
11142;DHT22;5625;50.122;19.864;2023-07-13T07:24:32;28.10;31.70
11142;DHT22;5625;50.122;19.864;2023-07-13T07:27:00;28.30;99.90
11142;DHT22;5625;50.122;19.864;2023-07-13T07:29:33;28.50;99.90
11142;DHT22;5625;50.122;19.864;2023-07-13T07:32:04;28.60;91.10
11142;DHT22;5625;50.122;19.864;2023-07-13T07:34:44;28.80;1.00
11142;DHT22;5625;50.122;19.864;2023-07-13T07:37:13;28.90;99.90
11142;DHT22;5625;50.122;19.864;2023-07-13T07:39:44;29.00;1.00
11142;DHT22;5625;50.122;19.864;2023-07-13T07:42:32;29.10;99.90
11142;DHT22;5625;50.122;19.864;2023-07-13T07:45:02;29.10;99.90
11142;DHT22;5625;50.122;19.864;2023-07-13T07:47:30;29.00;1.00
11142;DHT22;5625;50.122;19.864;2023-07-13T07:50:01;29.20;99.90
11142;DHT22;5625;50.122;19.864;2023-07-13T07:52:29;29.40;1.00
11142;DHT22;5625;50.122;19.864;2023-07-13T07:54:57;29.60;99.90
11142;DHT22;5625;50.122;19.864;2023-07-13T07:57:30;29.40;89.10
11142;DHT22;5625;50.122;19.864;2023-07-13T08:00:20;29.60;99.90
11142;DHT22;5625;50.122;19.864;2023-07-13T08:02:52;29.70;99.90
11142;DHT22;5625;50.122;19.864;2023-07-13T08:05:23;29.80;49.90
11142;DHT22;5625;50.122;19.864;2023-07-13T08:08:06;29.90;99.90
11142;DHT22;5625;50.122;19.864;2023-07-13T08:10:38;30.00;71.00
11142;DHT22;5625;50.122;19.864;2023-07-13T08:13:06;30.10;1.00
11142;DHT22;5625;50.122;19.864;2023-07-13T08:15:39;30.30;1.00
11142;DHT22;5625;50.122;19.864;2023-07-13T08:18:07;30.40;99.90
11142;DHT22;5625;50.122;19.864;2023-07-13T08:20:37;30.00;1.00
11142;DHT22;5625;50.122;19.864;2023-07-13T08:23:05;30.20;1.00
11142;DHT22;5625;50.122;19.864;2023-07-13T08:25:34;30.00;99.90
11142;DHT22;5625;50.122;19.864;2023-07-13T08:28:03;30.20;99.90
11142;DHT22;5625;50.122;19.864;2023-07-13T08:30:31;30.30;99.90
11142;DHT22;5625;50.122;19.864;2023-07-13T08:33:00;30.40;99.90
11142;DHT22;5625;50.122;19.864;2023-07-13T08:35:28;30.40;99.90
11142;DHT22;5625;50.122;19.864;2023-07-13T08:37:57;30.40;99.90
11142;DHT22;5625;50.122;19.864;2023-07-13T08:40:25;30.30;99.90
11142;DHT22;5625;50.122;19.864;2023-07-13T08:42:57;30.20;99.90
11142;DHT22;5625;50.122;19.864;2023-07-13T08:45:29;30.30;99.90
11142;DHT22;5625;50.122;19.864;2023-07-13T08:48:03;30.50;99.90
11142;DHT22;5625;50.122;19.864;2023-07-13T08:50:35;30.50;99.90
11142;DHT22;5625;50.122;19.864;2023-07-13T08:53:31;30.70;99.90
11142;DHT22;5625;50.122;19.864;2023-07-13T08:56:01;30.70;99.90
11142;DHT22;5625;50.122;19.864;2023-07-13T08:58:30;30.80;99.90
11142;DHT22;5625;50.122;19.864;2023-07-13T09:01:04;30.70;99.90
11142;DHT22;5625;50.122;19.864;2023-07-13T09:03:42;30.40;99.90
11142;DHT22;5625;50.122;19.864;2023-07-13T09:06:12;30.20;99.90
11142;DHT22;5625;50.122;19.864;2023-07-13T09:08:51;30.20;99.90
11142;DHT22;5625;50.122;19.864;2023-07-13T09:11:44;30.10;99.90
11142;DHT22;5625;50.122;19.864;2023-07-13T09:14:39;30.10;99.90
11142;DHT22;5625;50.122;19.864;2023-07-13T09:17:15;30.10;99.90
11142;DHT22;5625;50.122;19.864;2023-07-13T09:19:52;30.20;1.00
11142;DHT22;5625;50.122;19.864;2023-07-13T09:22:22;30.20;1.00
11142;DHT22;5625;50.122;19.864;2023-07-13T09:24:57;30.10;1.00
11142;DHT22;5625;50.122;19.864;2023-07-13T09:27:31;30.10;1.00
11142;DHT22;5625;50.122;19.864;2023-07-13T09:30:18;30.00;1.00
11142;DHT22;5625;50.122;19.864;2023-07-13T09:32:51;30.00;1.00
11142;DHT22;5625;50.122;19.864;2023-07-13T09:35:25;29.90;1.00
11142;DHT22;5625;50.122;19.864;2023-07-13T09:37:58;29.90;1.00
11142;DHT22;5625;50.122;19.864;2023-07-13T09:40:35;29.80;1.00
11142;DHT22;5625;50.122;19.864;2023-07-13T09:43:05;29.70;1.00
11142;DHT22;5625;50.122;19.864;2023-07-13T09:45:36;29.70;1.00
11142;DHT22;5625;50.122;19.864;2023-07-13T09:48:10;29.60;35.30
11142;DHT22;5625;50.122;19.864;2023-07-13T09:50:42;29.60;93.70
11142;DHT22;5625;50.122;19.864;2023-07-13T09:53:14;29.50;99.90
11142;DHT22;5625;50.122;19.864;2023-07-13T09:55:45;29.40;99.90
11142;DHT22;5625;50.122;19.864;2023-07-13T09:58:19;29.30;99.90
11142;DHT22;5625;50.122;19.864;2023-07-13T10:00:56;29.10;99.90
11142;DHT22;5625;50.122;19.864;2023-07-13T10:03:27;29.00;1.00
11142;DHT22;5625;50.122;19.864;2023-07-13T10:06:09;28.90;15.60
11142;DHT22;5625;50.122;19.864;2023-07-13T10:08:38;28.80;99.90
11142;DHT22;5625;50.122;19.864;2023-07-13T10:11:11;28.70;99.90
11142;DHT22;5625;50.122;19.864;2023-07-13T10:13:42;28.70;1.00
11142;DHT22;5625;50.122;19.864;2023-07-13T10:16:11;28.60;1.00
11142;DHT22;5625;50.122;19.864;2023-07-13T10:18:43;28.50;33.70
11142;DHT22;5625;50.122;19.864;2023-07-13T10:21:16;28.40;99.90
11142;DHT22;5625;50.122;19.864;2023-07-13T10:23:51;28.30;1.00
11142;DHT22;5625;50.122;19.864;2023-07-13T10:26:25;28.30;1.00
11142;DHT22;5625;50.122;19.864;2023-07-13T10:28:56;28.20;61.10
11142;DHT22;5625;50.122;19.864;2023-07-13T10:31:25;28.10;12.80
11142;DHT22;5625;50.122;19.864;2023-07-13T10:33:53;28.00;98.30
11142;DHT22;5625;50.122;19.864;2023-07-13T10:36:31;27.90;99.90
11142;DHT22;5625;50.122;19.864;2023-07-13T10:39:03;27.90;1.00
11142;DHT22;5625;50.122;19.864;2023-07-13T10:41:38;27.80;99.90
11142;DHT22;5625;50.122;19.864;2023-07-13T10:44:15;27.70;1.00
11142;DHT22;5625;50.122;19.864;2023-07-13T10:46:46;27.60;90.60
11142;DHT22;5625;50.122;19.864;2023-07-13T10:49:16;27.50;1.00
11142;DHT22;5625;50.122;19.864;2023-07-13T10:51:46;27.40;99.90
11142;DHT22;5625;50.122;19.864;2023-07-13T10:54:17;27.30;99.90
11142;DHT22;5625;50.122;19.864;2023-07-13T10:56:48;27.20;1.00
11142;DHT22;5625;50.122;19.864;2023-07-13T10:59:20;27.10;99.90
11142;DHT22;5625;50.122;19.864;2023-07-13T11:01:56;27.00;99.90
11142;DHT22;5625;50.122;19.864;2023-07-13T11:04:27;26.80;99.90
11142;DHT22;5625;50.122;19.864;2023-07-13T11:06:59;26.80;1.00
11142;DHT22;5625;50.122;19.864;2023-07-13T11:09:38;26.70;1.00
11142;DHT22;5625;50.122;19.864;2023-07-13T11:12:10;26.60;93.70
11142;DHT22;5625;50.122;19.864;2023-07-13T11:15:11;26.50;99.90
11142;DHT22;5625;50.122;19.864;2023-07-13T11:17:50;26.30;99.90
11142;DHT22;5625;50.122;19.864;2023-07-13T11:20:30;26.10;99.90
11142;DHT22;5625;50.122;19.864;2023-07-13T11:23:20;26.00;99.90
11142;DHT22;5625;50.122;19.864;2023-07-13T11:25:48;25.60;1.00
11142;DHT22;5625;50.122;19.864;2023-07-13T11:28:24;25.40;1.00
11142;DHT22;5625;50.122;19.864;2023-07-13T11:31:12;25.00;1.00
11142;DHT22;5625;50.122;19.864;2023-07-13T11:33:56;24.50;99.90
11142;DHT22;5625;50.122;19.864;2023-07-13T11:36:36;24.00;99.90
11142;DHT22;5625;50.122;19.864;2023-07-13T11:39:18;23.70;99.90
11142;DHT22;5625;50.122;19.864;2023-07-13T11:41:51;23.50;99.90
11142;DHT22;5625;50.122;19.864;2023-07-13T11:44:22;23.00;99.90
11142;DHT22;5625;50.122;19.864;2023-07-13T11:46:51;23.00;99.90
11142;DHT22;5625;50.122;19.864;2023-07-13T11:49:23;22.90;99.90
11142;DHT22;5625;50.122;19.864;2023-07-13T11:51:52;22.60;99.90
11142;DHT22;5625;50.122;19.864;2023-07-13T11:54:28;22.50;99.90
11142;DHT22;5625;50.122;19.864;2023-07-13T11:56:59;22.40;1.00
11142;DHT22;5625;50.122;19.864;2023-07-13T11:59:30;22.30;1.00
11142;DHT22;5625;50.122;19.864;2023-07-13T12:02:00;22.30;1.00
11142;DHT22;5625;50.122;19.864;2023-07-13T12:04:32;22.20;1.00
11142;DHT22;5625;50.122;19.864;2023-07-13T12:07:05;22.20;1.00
11142;DHT22;5625;50.122;19.864;2023-07-13T12:09:36;22.10;1.00
11142;DHT22;5625;50.122;19.864;2023-07-13T12:12:10;22.00;1.00
11142;DHT22;5625;50.122;19.864;2023-07-13T12:14:39;21.90;1.00
11142;DHT22;5625;50.122;19.864;2023-07-13T12:17:15;21.90;1.00
11142;DHT22;5625;50.122;19.864;2023-07-13T12:19:43;21.80;1.00
11142;DHT22;5625;50.122;19.864;2023-07-13T12:22:13;21.80;1.00
11142;DHT22;5625;50.122;19.864;2023-07-13T12:24:43;21.80;1.00
11142;DHT22;5625;50.122;19.864;2023-07-13T12:27:19;21.80;1.00
11142;DHT22;5625;50.122;19.864;2023-07-13T12:29:50;21.80;1.00
11142;DHT22;5625;50.122;19.864;2023-07-13T12:32:20;21.80;1.00
11142;DHT22;5625;50.122;19.864;2023-07-13T12:34:53;21.70;1.00
11142;DHT22;5625;50.122;19.864;2023-07-13T12:37:22;21.60;1.00
11142;DHT22;5625;50.122;19.864;2023-07-13T12:39:52;21.50;1.00
11142;DHT22;5625;50.122;19.864;2023-07-13T12:42:22;21.50;1.00
11142;DHT22;5625;50.122;19.864;2023-07-13T12:44:53;21.50;1.00
11142;DHT22;5625;50.122;19.864;2023-07-13T12:47:21;21.60;1.00
11142;DHT22;5625;50.122;19.864;2023-07-13T12:49:53;21.70;1.00
11142;DHT22;5625;50.122;19.864;2023-07-13T12:52:23;21.60;1.00
11142;DHT22;5625;50.122;19.864;2023-07-13T12:55:03;21.60;1.00
11142;DHT22;5625;50.122;19.864;2023-07-13T12:57:39;21.60;1.00
11142;DHT22;5625;50.122;19.864;2023-07-13T13:00:21;21.60;1.00
11142;DHT22;5625;50.122;19.864;2023-07-13T13:02:52;21.70;5.60
11142;DHT22;5625;50.122;19.864;2023-07-13T13:05:34;21.80;24.60
11142;DHT22;5625;50.122;19.864;2023-07-13T13:08:09;21.80;9.70
11142;DHT22;5625;50.122;19.864;2023-07-13T13:10:40;21.90;12.60
11142;DHT22;5625;50.122;19.864;2023-07-13T13:13:08;21.90;5.70
11142;DHT22;5625;50.122;19.864;2023-07-13T13:15:39;21.80;18.60
11142;DHT22;5625;50.122;19.864;2023-07-13T13:18:15;21.80;6.20
11142;DHT22;5625;50.122;19.864;2023-07-13T13:20:47;21.70;39.00
11142;DHT22;5625;50.122;19.864;2023-07-13T13:23:17;21.70;63.30
11142;DHT22;5625;50.122;19.864;2023-07-13T13:25:49;21.80;65.80
11142;DHT22;5625;50.122;19.864;2023-07-13T13:28:19;21.90;59.60
11142;DHT22;5625;50.122;19.864;2023-07-13T13:30:49;22.00;55.90
11142;DHT22;5625;50.122;19.864;2023-07-13T13:33:18;22.10;60.70
11142;DHT22;5625;50.122;19.864;2023-07-13T13:35:47;22.10;79.10
11142;DHT22;5625;50.122;19.864;2023-07-13T13:38:21;22.10;67.40
11142;DHT22;5625;50.122;19.864;2023-07-13T13:40:52;22.20;65.30
11142;DHT22;5625;50.122;19.864;2023-07-13T13:43:22;22.30;72.30
11142;DHT22;5625;50.122;19.864;2023-07-13T13:45:57;22.30;62.20
11142;DHT22;5625;50.122;19.864;2023-07-13T13:48:30;22.30;44.00
11142;DHT22;5625;50.122;19.864;2023-07-13T13:51:00;22.30;41.00
11142;DHT22;5625;50.122;19.864;2023-07-13T13:53:29;22.40;39.30
11142;DHT22;5625;50.122;19.864;2023-07-13T13:55:58;22.40;40.00
11142;DHT22;5625;50.122;19.864;2023-07-13T13:58:27;22.40;37.10
11142;DHT22;5625;50.122;19.864;2023-07-13T14:00:55;22.30;31.80
11142;DHT22;5625;50.122;19.864;2023-07-13T14:03:24;22.30;31.50
11142;DHT22;5625;50.122;19.864;2023-07-13T14:05:54;22.40;30.60
11142;DHT22;5625;50.122;19.864;2023-07-13T14:08:24;22.40;38.60
11142;DHT22;5625;50.122;19.864;2023-07-13T14:10:55;22.40;43.60
11142;DHT22;5625;50.122;19.864;2023-07-13T14:13:32;22.50;36.10
11142;DHT22;5625;50.122;19.864;2023-07-13T14:16:04;22.50;34.90
11142;DHT22;5625;50.122;19.864;2023-07-13T14:18:34;22.70;36.00
11142;DHT22;5625;50.122;19.864;2023-07-13T14:21:02;22.80;29.70
11142;DHT22;5625;50.122;19.864;2023-07-13T14:23:30;22.90;19.40
11142;DHT22;5625;50.122;19.864;2023-07-13T14:25:58;22.90;23.10
11142;DHT22;5625;50.122;19.864;2023-07-13T14:28:28;22.90;19.10
11142;DHT22;5625;50.122;19.864;2023-07-13T14:30:56;23.00;5.90
11142;DHT22;5625;50.122;19.864;2023-07-13T14:33:26;23.00;7.20
11142;DHT22;5625;50.122;19.864;2023-07-13T14:35:56;23.00;7.90
11142;DHT22;5625;50.122;19.864;2023-07-13T14:38:24;23.10;6.60
11142;DHT22;5625;50.122;19.864;2023-07-13T14:40:53;23.20;4.10
11142;DHT22;5625;50.122;19.864;2023-07-13T14:43:21;23.20;3.80
11142;DHT22;5625;50.122;19.864;2023-07-13T14:45:51;23.30;1.00
11142;DHT22;5625;50.122;19.864;2023-07-13T14:48:25;23.30;1.00
11142;DHT22;5625;50.122;19.864;2023-07-13T14:50:55;23.40;1.00
11142;DHT22;5625;50.122;19.864;2023-07-13T14:53:26;23.40;1.00
11142;DHT22;5625;50.122;19.864;2023-07-13T14:55:55;23.60;1.00
11142;DHT22;5625;50.122;19.864;2023-07-13T14:58:23;23.70;1.00
11142;DHT22;5625;50.122;19.864;2023-07-13T15:00:53;23.70;1.00
11142;DHT22;5625;50.122;19.864;2023-07-13T15:03:27;23.70;1.00
11142;DHT22;5625;50.122;19.864;2023-07-13T15:05:55;23.70;1.00
11142;DHT22;5625;50.122;19.864;2023-07-13T15:08:23;23.60;1.00
11142;DHT22;5625;50.122;19.864;2023-07-13T15:10:52;23.60;1.00
11142;DHT22;5625;50.122;19.864;2023-07-13T15:13:21;23.60;1.00
11142;DHT22;5625;50.122;19.864;2023-07-13T15:15:53;23.60;1.00
11142;DHT22;5625;50.122;19.864;2023-07-13T15:18:25;23.60;1.00
11142;DHT22;5625;50.122;19.864;2023-07-13T15:20:54;23.60;1.00
11142;DHT22;5625;50.122;19.864;2023-07-13T15:23:24;23.60;1.00
11142;DHT22;5625;50.122;19.864;2023-07-13T15:25:52;23.50;1.00
11142;DHT22;5625;50.122;19.864;2023-07-13T15:28:20;23.50;1.00
11142;DHT22;5625;50.122;19.864;2023-07-13T15:30:49;23.40;1.00
11142;DHT22;5625;50.122;19.864;2023-07-13T15:33:22;23.40;1.00
11142;DHT22;5625;50.122;19.864;2023-07-13T15:35:51;23.40;99.90
11142;DHT22;5625;50.122;19.864;2023-07-13T15:38:22;23.40;99.90
11142;DHT22;5625;50.122;19.864;2023-07-13T15:40:52;23.30;99.90
11142;DHT22;5625;50.122;19.864;2023-07-13T15:43:20;23.40;99.90
11142;DHT22;5625;50.122;19.864;2023-07-13T15:45:48;23.40;99.90
11142;DHT22;5625;50.122;19.864;2023-07-13T15:48:21;23.40;99.90
11142;DHT22;5625;50.122;19.864;2023-07-13T15:50:50;23.40;99.90
11142;DHT22;5625;50.122;19.864;2023-07-13T15:53:22;23.50;99.90
11142;DHT22;5625;50.122;19.864;2023-07-13T15:55:51;23.60;99.90
11142;DHT22;5625;50.122;19.864;2023-07-13T15:58:20;23.60;99.90
11142;DHT22;5625;50.122;19.864;2023-07-13T16:00:48;23.60;99.90